Time;durP1;ratioP1;P1;durP2;ratioP2;P2;SDS_P1;SDS_P2;PMS_P1;PMS_P2;Temp;Humidity;BMP_temperature;BMP_pressure;BME280_temperature;BME280_humidity;BME280_pressure;Samples;Min_cycle;Max_cycle;Signal;HPM_P1;HPM_P2
2021/12/16 00:08:04;;;;;;;35.72;18.17;;;;;;;7.95;100.00;103147.69;4809595;28;20047;-73
2021/12/16 00:10:50;;;;;;;31.45;17.63;;;;;;;7.96;100.00;103135.94;4802893;29;20105;-74
2021/12/16 00:34:59;;;;;;;41.83;18.48;;;;;;;8.06;100.00;103152.91;4817283;28;20133;-74
2021/12/16 00:37:26;;;;;;;34.60;17.80;;;;;;;8.04;100.00;103153.06;4798380;29;20031;-74
2021/12/16 00:39:52;;;;;;;30.42;16.95;;;;;;;8.08;100.00;103156.31;4834656;29;20097;-74
2021/12/16 00:45:07;;;;;;;40.58;17.10;;;;;;;8.09;100.00;103158.00;4815991;29;20066;-72
2021/12/16 00:47:56;;;;;;;36.47;17.90;;;;;;;8.10;100.00;103154.31;4829274;29;20188;-74
2021/12/16 00:55:53;;;;;;;36.53;17.33;;;;;;;8.10;100.00;103165.91;4811975;29;25465;-74
2021/12/16 00:58:30;;;;;;;34.40;16.30;;;;;;;8.13;100.00;103154.88;4814956;29;20035;-74
2021/12/16 01:04:50;;;;;;;35.95;16.10;;;;;;;8.21;100.00;103164.91;4806929;29;20050;-74
2021/12/16 01:06:54;;;;;;;32.97;15.50;;;;;;;8.26;100.00;103175.25;4824158;28;20051;-74
2021/12/16 01:48:13;;;;;;;32.28;15.30;;;;;;;8.30;100.00;103198.16;4823120;29;20051;-74
2021/12/16 01:50:43;;;;;;;31.38;14.85;;;;;;;8.32;100.00;103201.56;4833212;29;20051;-74
2021/12/16 01:53:49;;;;;;;37.33;15.70;;;;;;;8.33;100.00;103208.63;4800004;29;20051;-75
2021/12/16 01:56:59;;;;;;;32.10;14.90;;;;;;;8.31;100.00;103222.16;4812552;29;20047;-74
2021/12/16 01:59:00;;;;;;;38.78;16.23;;;;;;;8.30;100.00;103220.47;4814927;29;20138;-74
2021/12/16 02:01:32;;;;;;;27.40;14.32;;;;;;;8.31;100.00;103216.81;4832997;29;21236;-73
2021/12/16 02:04:20;;;;;;;27.08;15.05;;;;;;;8.34;100.00;103215.69;4816104;29;20042;-74
2021/12/16 02:09:33;;;;;;;29.48;14.15;;;;;;;8.38;100.00;103221.66;4830460;29;20043;-74
2021/12/16 02:12:11;;;;;;;29.42;13.20;;;;;;;8.38;100.00;103232.41;4818230;28;20047;-75
2021/12/16 02:36:29;;;;;;;43.58;16.65;;;;;;;8.29;100.00;103240.28;4836759;29;20027;-74
2021/12/16 02:39:01;;;;;;;36.83;16.52;;;;;;;8.28;100.00;103237.72;4823864;29;20056;-74
2021/12/16 02:41:27;;;;;;;36.38;15.52;;;;;;;8.29;100.00;103239.44;4836251;29;23430;-74
2021/12/16 02:44:13;;;;;;;35.08;16.17;;;;;;;8.29;100.00;103234.06;4816638;29;20051;-74
2021/12/16 02:49:26;;;;;;;33.78;16.27;;;;;;;8.21;100.00;103221.31;4830877;28;20090;-73
2021/12/16 02:51:52;;;;;;;28.13;15.90;;;;;;;8.18;100.00;103213.56;4826402;28;20043;-73
2021/12/16 02:54:18;;;;;;;33.15;16.02;;;;;;;8.09;100.00;103222.44;4821378;29;20043;-73
2021/12/16 02:56:44;;;;;;;34.75;16.05;;;;;;;8.01;100.00;103214.22;4833094;28;20043;-74
2021/12/16 02:59:10;;;;;;;30.15;16.08;;;;;;;7.91;100.00;103222.25;4829601;29;20166;-74
2021/12/16 03:01:35;;;;;;;40.83;18.17;;;;;;;7.84;100.00;103235.38;4823020;29;22469;-74
2021/12/16 03:04:03;;;;;;;39.28;17.70;;;;;;;7.82;100.00;103237.31;4803648;29;20134;-74
2021/12/16 03:06:31;;;;;;;39.97;17.73;;;;;;;7.87;100.00;103232.41;4837674;29;20209;-74
2021/12/16 03:08:58;;;;;;;47.17;18.15;;;;;;;7.87;100.00;103221.69;4835215;29;20118;-74
2021/12/16 03:11:33;;;;;;;36.58;17.60;;;;;;;7.82;100.00;103225.75;4827757;29;20565;-74
2021/12/16 03:16:51;;;;;;;33.75;17.88;;;;;;;7.80;100.00;103233.09;4823582;28;20110;-73
2021/12/16 03:19:30;;;;;;;32.25;18.63;;;;;;;7.77;100.00;103223.47;4822856;29;20035;-74
2021/12/16 03:21:59;;;;;;;43.03;17.73;;;;;;;7.71;100.00;103202.56;4834994;29;20059;-74
2021/12/16 03:37:17;;;;;;;41.28;18.05;;;;;;;7.70;100.00;103249.16;4827182;28;20149;-73
2021/12/16 03:39:49;;;;;;;34.97;16.05;;;;;;;7.66;100.00;103258.47;4836714;29;21096;-74
2021/12/16 03:42:23;;;;;;;37.78;19.30;;;;;;;7.59;100.00;103259.97;4823168;28;20056;-74
2021/12/16 03:44:56;;;;;;;34.15;17.15;;;;;;;7.54;100.00;103262.19;4835754;28;20099;-75
2021/12/16 03:47:36;;;;;;;43.65;17.63;;;;;;;7.47;100.00;103258.34;4812069;29;25662;-74
2021/12/16 03:50:07;;;;;;;41.83;18.35;;;;;;;7.43;100.00;103267.66;4804936;29;24299;-73
2021/12/16 03:52:33;;;;;;;39.05;18.90;;;;;;;7.46;100.00;103262.03;4817162;29;21342;-73
2021/12/16 03:54:59;;;;;;;46.13;19.20;;;;;;;7.53;100.00;103279.28;4813197;29;20496;-73
2021/12/16 03:57:27;;;;;;;37.28;17.73;;;;;;;7.57;100.00;103257.41;4802350;29;20063;-74
2021/12/16 03:59:52;;;;;;;40.20;18.52;;;;;;;7.59;100.00;103262.66;4824995;29;20031;-74
2021/12/16 04:02:24;;;;;;;43.40;17.95;;;;;;;7.51;100.00;103267.81;4794599;29;20122;-74
2021/12/16 04:04:51;;;;;;;36.97;18.00;;;;;;;7.57;100.00;103278.03;4814660;29;20027;-73
2021/12/16 04:07:19;;;;;;;36.67;16.65;;;;;;;7.55;100.00;103280.00;4806227;29;20032;-74
2021/12/16 04:09:46;;;;;;;36.88;16.95;;;;;;;7.47;100.00;103261.88;4807852;29;20101;-74
2021/12/16 04:12:13;;;;;;;39.03;17.88;;;;;;;7.41;100.00;103271.31;4815053;29;20023;-74
2021/12/16 04:14:41;;;;;;;38.53;17.27;;;;;;;7.31;100.00;103283.81;4801944;29;20055;-74
2021/12/16 04:17:08;;;;;;;38.55;17.73;;;;;;;7.19;100.00;103290.22;4812769;29;20075;-74
2021/12/16 04:19:34;;;;;;;37.33;17.80;;;;;;;7.03;100.00;103277.28;4818350;29;20046;-74
2021/12/16 04:22:09;;;;;;;44.10;17.92;;;;;;;7.01;100.00;103278.38;4802131;29;20066;-74
2021/12/16 04:24:34;;;;;;;36.20;18.95;;;;;;;7.02;100.00;103285.44;4829102;29;20038;-74
2021/12/16 04:27:00;;;;;;;47.00;18.25;;;;;;;7.01;100.00;103289.09;4809920;29;20083;-74
2021/12/16 04:29:26;;;;;;;42.45;20.33;;;;;;;7.07;100.00;103304.69;4807313;29;20055;-74
2021/12/16 04:31:54;;;;;;;47.33;19.90;;;;;;;7.11;100.00;103306.13;4829896;28;23879;-74
2021/12/16 04:34:19;;;;;;;37.35;20.50;;;;;;;7.20;100.00;103315.22;4802299;29;20060;-74
2021/12/16 04:36:45;;;;;;;44.60;21.85;;;;;;;7.26;100.00;103310.16;4818359;29;20099;-74
2021/12/16 04:39:15;;;;;;;49.65;20.67;;;;;;;7.26;100.00;103306.63;4817353;29;20162;-74
2021/12/16 04:41:41;;;;;;;41.60;19.10;;;;;;;7.21;100.00;103312.41;4803068;29;20991;-74
2021/12/16 04:44:10;;;;;;;49.20;20.13;;;;;;;7.18;100.00;103313.50;4829580;29;20042;-74
2021/12/16 04:46:36;;;;;;;36.28;18.70;;;;;;;7.18;100.00;103323.38;4828824;28;20060;-74
2021/12/16 04:49:03;;;;;;;47.38;19.92;;;;;;;7.16;100.00;103325.34;4826952;29;20062;-75
2021/12/16 04:51:33;;;;;;;43.80;20.60;;;;;;;7.08;100.00;103317.09;4818596;29;20042;-74
2021/12/16 04:53:59;;;;;;;41.58;19.30;;;;;;;7.09;100.00;103319.66;4822462;29;20055;-74
2021/12/16 04:56:25;;;;;;;43.75;20.33;;;;;;;7.10;100.00;103328.53;4814393;29;20137;-74
2021/12/16 04:58:52;;;;;;;46.55;21.02;;;;;;;7.06;100.00;103329.78;4810010;29;20054;-75
2021/12/16 05:01:18;;;;;;;38.33;19.85;;;;;;;6.99;100.00;103333.97;4809527;29;20154;-75
2021/12/16 05:03:44;;;;;;;43.40;19.85;;;;;;;6.87;100.00;103336.66;4822928;29;20600;-74
2021/12/16 05:06:10;;;;;;;40.90;20.77;;;;;;;6.79;100.00;103336.47;4815664;29;20782;-74
2021/12/16 05:08:36;;;;;;;60.50;22.20;;;;;;;6.71;100.00;103340.75;4830721;29;20166;-74
2021/12/16 05:11:04;;;;;;;48.40;21.27;;;;;;;6.62;100.00;103348.56;4816000;29;20043;-74
2021/12/16 05:13:30;;;;;;;51.22;22.15;;;;;;;6.54;100.00;103350.16;4822494;28;20051;-75
2021/12/16 05:16:00;;;;;;;48.15;21.42;;;;;;;6.53;100.00;103353.81;4835528;28;20038;-74
2021/12/16 05:18:31;;;;;;;46.20;21.70;;;;;;;6.41;100.00;103359.19;4829365;28;20540;-74
2021/12/16 05:20:58;;;;;;;53.63;22.27;;;;;;;6.32;100.00;103367.09;4805981;29;20071;-74
2021/12/16 05:28:38;;;;;;;57.20;24.35;;;;;;;6.25;100.00;103369.44;4835405;29;20043;-74
2021/12/16 05:31:04;;;;;;;60.50;24.42;;;;;;;6.30;100.00;103367.22;4818395;29;20778;-74
2021/12/16 05:33:30;;;;;;;59.90;25.35;;;;;;;6.41;100.00;103372.56;4820998;28;20059;-74
2021/12/16 05:35:57;;;;;;;65.00;26.45;;;;;;;6.49;100.00;103382.66;4819254;29;20062;-74
2021/12/16 05:38:24;;;;;;;55.45;25.27;;;;;;;6.57;100.00;103385.59;4815582;29;20050;-74
2021/12/16 05:40:49;;;;;;;71.55;26.73;;;;;;;6.66;100.00;103394.69;4825574;29;20554;-73
2021/12/16 05:43:17;;;;;;;58.45;26.90;;;;;;;6.73;100.00;103397.72;4834335;29;20039;-74
2021/12/16 05:45:44;;;;;;;57.28;24.88;;;;;;;6.78;100.00;103399.06;4822015;28;20047;-74
2021/12/16 05:48:13;;;;;;;58.67;25.50;;;;;;;6.85;100.00;103408.28;4835109;29;20051;-73
2021/12/16 05:50:42;;;;;;;62.58;23.63;;;;;;;6.88;100.00;103396.44;4823612;28;20039;-74
2021/12/16 05:53:08;;;;;;;51.72;25.30;;;;;;;6.96;100.00;103398.53;4826857;29;20056;-73
2021/12/16 05:55:33;;;;;;;57.85;25.52;;;;;;;6.92;100.00;103393.41;4831842;28;20035;-74
2021/12/16 05:58:02;;;;;;;56.58;24.40;;;;;;;6.97;100.00;103394.84;4803993;29;21029;-74
2021/12/16 06:00:32;;;;;;;53.10;21.42;;;;;;;7.02;100.00;103400.69;4818995;29;20113;-74
2021/12/16 06:02:57;;;;;;;54.15;23.98;;;;;;;7.00;100.00;103399.97;4834851;28;20035;-74
2021/12/16 06:05:23;;;;;;;54.13;23.17;;;;;;;7.01;100.00;103398.97;4802557;29;20059;-74
2021/12/16 06:07:49;;;;;;;39.80;21.13;;;;;;;6.99;100.00;103390.25;4837460;28;20039;-75
2021/12/16 06:11:19;;;;;;;48.03;20.85;;;;;;;6.89;100.00;103401.69;4820152;29;20051;-75
2021/12/16 06:13:10;;;;;;;51.60;21.67;;;;;;;6.80;100.00;103415.84;4813391;29;20160;-75
2021/12/16 06:26:31;;;;;;;;;;;;;;;6.59;100.00;103412.22;4834532;28;20193;-75
2021/12/16 06:28:56;;;;;;;54.25;22.38;;;;;;;6.58;100.00;103415.88;4832692;28;20469;-75
2021/12/16 06:31:22;;;;;;;58.08;22.95;;;;;;;6.57;100.00;103425.75;4823219;28;20048;-75
2021/12/16 06:33:49;;;;;;;46.10;23.25;;;;;;;6.53;100.00;103410.91;4838298;29;21110;-74
2021/12/16 06:36:14;;;;;;;59.50;24.48;;;;;;;6.55;100.00;103424.16;4814760;29;23816;-73
2021/12/16 06:38:40;;;;;;;54.67;24.05;;;;;;;6.55;100.00;103427.69;4809893;29;20059;-74
2021/12/16 06:41:05;;;;;;;58.78;26.25;;;;;;;6.61;100.00;103431.72;4820753;29;20118;-73
2021/12/16 06:43:32;;;;;;;65.57;26.25;;;;;;;6.66;100.00;103440.22;4821616;28;20066;-73
2021/12/16 06:46:00;;;;;;;63.53;25.23;;;;;;;6.67;100.00;103436.59;4836651;29;20045;-73
2021/12/16 06:48:30;;;;;;;59.05;27.13;;;;;;;6.66;100.00;103424.16;4839742;29;20064;-73
2021/12/16 06:51:03;;;;;;;64.75;27.30;;;;;;;6.69;100.00;103418.53;4825015;28;20051;-73
2021/12/16 06:53:47;;;;;;;58.28;27.52;;;;;;;6.68;100.00;103422.22;4823420;29;20039;-73
2021/12/16 06:56:21;;;;;;;56.33;26.30;;;;;;;6.71;100.00;103411.25;4822985;28;20062;-73
2021/12/16 06:58:51;;;;;;;69.97;28.08;;;;;;;6.72;100.00;103412.94;4837088;29;20310;-73
2021/12/16 07:01:32;;;;;;;64.47;28.23;;;;;;;6.73;100.00;103422.66;4836939;28;20468;-73
2021/12/16 07:03:58;;;;;;;68.05;29.90;;;;;;;6.72;100.00;103428.16;4808772;29;21021;-73
2021/12/16 07:06:29;;;;;;;57.97;28.65;;;;;;;6.69;100.00;103430.09;4837449;29;20190;-73
2021/12/16 07:09:01;;;;;;;60.65;27.70;;;;;;;6.70;100.00;103436.31;4829418;29;20130;-74
2021/12/16 07:11:27;;;;;;;66.95;27.52;;;;;;;6.72;100.00;103431.69;4818128;29;20506;-73
2021/12/16 07:13:58;;;;;;;65.28;29.98;;;;;;;6.75;100.00;103436.81;4837158;29;20114;-74
2021/12/16 07:16:25;;;;;;;71.88;30.73;;;;;;;6.73;100.00;103444.09;4807719;29;20090;-74
2021/12/16 07:18:52;;;;;;;60.50;27.65;;;;;;;6.76;100.00;103451.06;4825795;28;20055;-74
2021/12/16 07:21:17;;;;;;;59.88;28.30;;;;;;;6.77;100.00;103447.38;4804575;29;20110;-75
2021/12/16 07:23:43;;;;;;;63.33;27.75;;;;;;;6.77;100.00;103448.22;4799787;29;20799;-74
2021/12/16 07:26:08;;;;;;;67.78;29.42;;;;;;;6.76;100.00;103449.22;4810875;29;20039;-74
2021/12/16 07:28:34;;;;;;;71.82;29.58;;;;;;;6.82;100.00;103450.56;4821101;28;22480;-74
2021/12/16 07:30:59;;;;;;;57.50;28.70;;;;;;;6.82;100.00;103454.09;4813617;29;24062;-75
2021/12/16 07:33:25;;;;;;;73.68;29.75;;;;;;;6.86;100.00;103465.41;4812209;29;20110;-74
2021/12/16 07:35:51;;;;;;;54.47;27.85;;;;;;;6.83;100.00;103471.84;4819333;28;20055;-74
2021/12/16 07:38:17;;;;;;;70.72;28.83;;;;;;;6.82;100.00;103475.53;4830168;29;20043;-74
2021/12/16 07:40:43;;;;;;;67.15;30.13;;;;;;;6.83;100.00;103485.25;4816952;29;20047;-74
2021/12/16 07:43:10;;;;;;;58.88;27.45;;;;;;;6.79;100.00;103489.16;4825196;29;20055;-74
2021/12/16 07:45:42;;;;;;;69.45;27.77;;;;;;;6.88;100.00;103488.44;4835884;29;20070;-75
2021/12/16 07:48:09;;;;;;;65.03;29.15;;;;;;;6.91;100.00;103498.91;4822817;28;20150;-75
2021/12/16 07:50:35;;;;;;;68.10;29.20;;;;;;;6.94;100.00;103500.47;4833505;28;20371;-75
2021/12/16 07:53:01;;;;;;;67.25;30.27;;;;;;;6.98;100.00;103501.06;4799423;29;26971;-74
2021/12/16 07:55:26;;;;;;;58.92;26.40;;;;;;;7.10;100.00;103516.16;4802485;28;20051;-74
2021/12/16 07:57:52;;;;;;;58.70;27.63;;;;;;;7.16;100.00;103531.75;4818715;29;20039;-74
2021/12/16 08:00:25;;;;;;;61.75;27.42;;;;;;;7.21;100.00;103529.53;4832900;28;21305;-74
2021/12/16 08:02:50;;;;;;;59.17;28.75;;;;;;;7.22;100.00;103549.16;4827399;29;20051;-74
2021/12/16 08:05:18;;;;;;;66.45;27.02;;;;;;;7.23;100.00;103535.66;4837878;29;20027;-74
2021/12/16 08:07:44;;;;;;;63.25;25.35;;;;;;;7.28;100.00;103530.75;4823546;28;20063;-75
2021/12/16 08:10:16;;;;;;;60.58;26.13;;;;;;;7.22;100.00;103523.19;4838588;29;20150;-74
2021/12/16 08:12:42;;;;;;;56.22;26.60;;;;;;;7.21;100.00;103526.03;4816839;29;20031;-74
2021/12/16 08:15:08;;;;;;;49.63;27.13;;;;;;;7.13;100.00;103524.81;4823197;28;20181;-78
2021/12/16 08:17:34;;;;;;;57.67;26.50;;;;;;;7.12;100.00;103523.09;4815835;29;23903;-74
2021/12/16 08:19:59;;;;;;;55.30;27.70;;;;;;;7.08;100.00;103520.78;4803378;29;20057;-74
2021/12/16 08:22:25;;;;;;;51.33;27.63;;;;;;;7.07;100.00;103537.84;4834769;29;20159;-75
2021/12/16 08:24:51;;;;;;;60.20;27.13;;;;;;;7.10;100.00;103540.28;4833889;29;20135;-75
2021/12/16 08:27:17;;;;;;;57.33;26.67;;;;;;;7.14;100.00;103544.44;4823308;28;20059;-75
2021/12/16 08:29:43;;;;;;;60.85;28.33;;;;;;;7.20;100.00;103538.56;4835445;29;20031;-74
2021/12/16 08:32:09;;;;;;;57.63;27.70;;;;;;;7.22;100.00;103550.00;4830455;28;20229;-75
2021/12/16 08:34:38;;;;;;;56.30;26.50;;;;;;;7.30;100.00;103549.38;4805801;29;20063;-75
2021/12/16 08:37:06;;;;;;;61.47;26.27;;;;;;;7.30;100.00;103557.41;4818666;29;20047;-75
2021/12/16 08:39:32;;;;;;;67.30;28.20;;;;;;;7.42;100.00;103559.13;4819483;29;20090;-73
2021/12/16 08:41:58;;;;;;;58.20;27.15;;;;;;;7.53;100.00;103558.22;4836222;29;20039;-73
2021/12/16 08:44:24;;;;;;;55.00;25.48;;;;;;;7.55;100.00;103556.28;4836020;28;20155;-73
2021/12/16 08:46:53;;;;;;;58.53;26.77;;;;;;;7.55;100.00;103567.03;4804102;29;20051;-74
2021/12/16 08:49:19;;;;;;;68.57;25.48;;;;;;;7.63;100.00;103564.53;4834220;29;20827;-74
2021/12/16 08:51:48;;;;;;;59.42;28.23;;;;;;;7.65;100.00;103557.22;4824725;28;22534;-75
2021/12/16 08:54:15;;;;;;;70.20;30.17;;;;;;;7.73;100.00;103570.84;4803559;29;23088;-75
2021/12/16 08:56:42;;;;;;;71.82;28.00;;;;;;;7.81;100.00;103572.91;4814684;29;21144;-74
2021/12/16 08:59:08;;;;;;;73.10;28.85;;;;;;;7.97;100.00;103556.34;4818571;28;20261;-71
2021/12/16 09:01:39;;;;;;;66.38;27.95;;;;;;;8.07;100.00;103562.63;4835935;28;20039;-71
2021/12/16 09:04:05;;;;;;;76.45;28.52;;;;;;;8.09;100.00;103558.00;4795984;29;20035;-72
2021/12/16 09:06:31;;;;;;;74.03;26.50;;;;;;;8.13;100.00;103562.13;4812220;29;20167;-72
2021/12/16 09:08:57;;;;;;;58.88;28.55;;;;;;;8.12;100.00;103563.13;4816407;29;20042;-72
2021/12/16 09:11:25;;;;;;;68.80;27.73;;;;;;;8.12;100.00;103566.66;4813026;29;20411;-73
2021/12/16 09:13:56;;;;;;;75.90;27.83;;;;;;;8.10;100.00;103568.59;4835634;28;20035;-71
2021/12/16 09:16:23;;;;;;;79.70;27.60;;;;;;;8.04;100.00;103571.81;4816298;29;20144;-71
2021/12/16 09:18:49;;;;;;;66.03;27.08;;;;;;;7.99;100.00;103575.88;4821370;29;20047;-71
2021/12/16 09:21:18;;;;;;;69.57;27.35;;;;;;;7.88;100.00;103577.63;4830423;28;20122;-72
2021/12/16 09:23:45;;;;;;;67.15;28.17;;;;;;;7.85;100.00;103569.81;4826903;28;20051;-72
2021/12/16 09:26:11;;;;;;;71.78;27.52;;;;;;;7.96;100.00;103565.38;4819557;29;20110;-74
2021/12/16 09:28:37;;;;;;;60.10;26.20;;;;;;;8.01;100.00;103573.91;4811236;29;22685;-71
2021/12/16 09:31:09;;;;;;;77.68;28.30;;;;;;;8.09;100.00;103585.69;4817065;29;20098;-72
2021/12/16 09:33:35;;;;;;;75.95;30.05;;;;;;;8.02;100.00;103591.72;4830013;29;21421;-72
2021/12/16 09:36:01;;;;;;;90.10;30.42;;;;;;;8.01;100.00;103595.41;4809664;29;20042;-73
2021/12/16 09:38:27;;;;;;;96.32;28.20;;;;;;;8.04;100.00;103612.09;4797188;29;20047;-74
2021/12/16 09:40:54;;;;;;;65.43;28.90;;;;;;;8.16;100.00;103614.72;4827633;29;20031;-71
2021/12/16 09:43:32;;;;;;;73.43;30.13;;;;;;;8.26;100.00;103613.81;4807672;29;20746;-71
2021/12/16 09:46:00;;;;;;;69.30;29.35;;;;;;;8.47;100.00;103618.38;4822458;29;20142;-72
2021/12/16 09:48:26;;;;;;;96.40;27.75;;;;;;;8.46;100.00;103616.66;4830917;29;20261;-72
2021/12/16 09:50:53;;;;;;;58.65;26.60;;;;;;;8.49;100.00;103622.63;4820637;28;20571;-72
2021/12/16 09:53:19;;;;;;;86.10;27.25;;;;;;;8.62;100.00;103638.56;4833532;28;20191;-73
2021/12/16 09:55:50;;;;;;;95.80;28.70;;;;;;;8.67;100.00;103632.78;4812610;29;20031;-73
2021/12/16 09:58:15;;;;;;;68.30;26.30;;;;;;;8.71;100.00;103632.41;4826542;29;20055;-73
2021/12/16 10:00:41;;;;;;;98.43;26.90;;;;;;;8.63;100.00;103640.25;4837608;29;20043;-74
2021/12/16 10:03:06;;;;;;;86.18;26.85;;;;;;;8.65;100.00;103651.72;4825224;28;20051;-75
2021/12/16 10:05:34;;;;;;;91.68;27.00;;;;;;;8.61;100.00;103652.97;4840628;28;22089;-73
2021/12/16 10:08:04;;;;;;;74.63;25.95;;;;;;;8.66;100.00;103656.13;4847595;29;20248;-73
2021/12/16 10:10:30;;;;;;;92.30;25.00;;;;;;;8.60;100.00;103657.50;4826676;29;20051;-75
2021/12/16 10:12:58;;;;;;;100.57;24.48;;;;;;;8.64;100.00;103662.63;4833940;28;20035;-75
2021/12/16 10:18:09;;;;;;;86.18;23.52;;;;;;;8.65;100.00;103670.53;4825320;28;20050;-75
2021/12/16 10:20:46;;;;;;;73.13;23.92;;;;;;;8.59;100.00;103665.69;4817947;29;20143;-74
2021/12/16 10:23:15;;;;;;;57.65;25.27;;;;;;;8.54;100.00;103674.16;4783906;29;20150;-75
2021/12/16 10:25:56;;;;;;;53.00;26.65;;;;;;;8.60;100.00;103675.47;4817637;29;20031;-74
2021/12/16 10:28:23;;;;;;;102.00;26.58;;;;;;;8.61;100.00;103666.41;4831689;28;20051;-74
2021/12/16 10:31:03;;;;;;;103.65;27.88;;;;;;;8.62;100.00;103670.81;4826615;29;20742;-74
2021/12/16 10:33:57;;;;;;;75.47;26.92;;;;;;;8.64;100.00;103671.53;4835927;29;20039;-75
2021/12/16 10:36:28;;;;;;;143.07;29.27;;;;;;;8.63;100.00;103672.50;4798507;29;20055;-74
2021/12/16 10:38:59;;;;;;;55.17;27.42;;;;;;;8.66;100.00;103672.22;4816211;29;20031;-75
2021/12/16 10:41:27;;;;;;;80.25;27.90;;;;;;;8.65;100.00;103665.16;4829613;29;20051;-74
2021/12/16 10:44:09;;;;;;;102.65;30.73;;;;;;;8.66;100.00;103674.94;4824581;29;20390;-74
2021/12/16 10:46:39;;;;;;;64.75;30.63;;;;;;;8.75;100.00;103679.53;4829239;29;20334;-75
2021/12/16 10:49:11;;;;;;;98.78;28.90;;;;;;;8.73;100.00;103678.78;4797693;29;20059;-74
2021/12/16 10:51:40;;;;;;;115.72;29.77;;;;;;;8.69;100.00;103671.97;4813613;29;20053;-73
2021/12/16 10:54:23;;;;;;;78.75;30.27;;;;;;;8.74;100.00;103669.75;4830960;28;20586;-74
2021/12/16 10:57:09;;;;;;;99.13;29.27;;;;;;;8.69;100.00;103676.50;4828679;29;20244;-73
2021/12/16 10:59:47;;;;;;;99.00;29.00;;;;;;;8.69;100.00;103682.72;4835411;29;23559;-74
2021/12/16 11:02:13;;;;;;;54.85;26.58;;;;;;;8.74;100.00;103677.81;4822354;28;20178;-73
2021/12/16 11:04:40;;;;;;;67.97;27.45;;;;;;;8.73;100.00;103675.25;4834664;29;20358;-74
2021/12/16 11:07:14;;;;;;;87.00;25.45;;;;;;;8.73;100.00;103678.78;4831641;28;20102;-76
2021/12/16 11:09:58;;;;;;;107.35;26.48;;;;;;;8.72;100.00;103677.09;4826876;29;20047;-74
2021/12/16 11:12:33;;;;;;;55.55;29.27;;;;;;;8.73;100.00;103672.56;4818415;29;20050;-75
2021/12/16 11:15:05;;;;;;;78.80;30.35;;;;;;;8.78;100.00;103668.50;4828710;29;20047;-74
2021/12/16 11:17:37;;;;;;;56.15;28.90;;;;;;;8.81;100.00;103670.09;4819618;29;20121;-74
2021/12/16 11:20:05;;;;;;;89.75;27.60;;;;;;;8.91;100.00;103670.13;4829138;28;20074;-74
2021/12/16 11:22:34;;;;;;;74.07;27.27;;;;;;;8.90;100.00;103669.28;4829616;28;20234;-74
2021/12/16 11:25:32;;;;;;;67.03;28.92;;;;;;;8.92;100.00;103677.22;4836263;29;20031;-74
2021/12/16 11:28:31;;;;;;;61.85;25.35;;;;;;;8.96;100.00;103673.28;4798476;28;20177;-74
2021/12/16 11:31:01;;;;;;;65.13;27.05;;;;;;;8.94;100.00;103676.09;4833430;29;20102;-74
2021/12/16 11:33:38;;;;;;;92.15;28.27;;;;;;;8.86;100.00;103683.13;4822502;28;20050;-74
2021/12/16 11:36:08;;;;;;;66.68;28.23;;;;;;;8.83;100.00;103674.34;4835784;29;20297;-76
2021/12/16 11:38:52;;;;;;;86.90;28.83;;;;;;;8.86;100.00;103669.69;4834263;29;22710;-74
2021/12/16 11:41:46;;;;;;;85.80;28.05;;;;;;;8.80;100.00;103673.75;4826235;28;21829;-74
2021/12/16 11:44:23;;;;;;;63.45;25.55;;;;;;;8.80;100.00;103669.22;4837199;28;20142;-73
2021/12/16 11:47:17;;;;;;;102.80;24.20;;;;;;;8.79;100.00;103683.66;4803976;29;20055;-73
2021/12/16 11:49:50;;;;;;;;;;;;;;;8.89;100.00;103685.56;4836599;29;20463;-73
2021/12/16 11:52:26;;;;;;;90.95;26.20;;;;;;;8.84;100.00;103681.44;4830764;29;19981;-75
2021/12/16 11:55:03;;;;;;;66.72;25.15;;;;;;;8.82;100.00;103678.00;4827613;28;21174;-75
2021/12/16 11:57:33;;;;;;;54.72;22.90;;;;;;;8.77;100.00;103685.59;4833938;29;20035;-73
2021/12/16 12:00:03;;;;;;;86.18;25.55;;;;;;;8.83;100.00;103684.22;4816456;29;20059;-74
2021/12/16 12:03:02;;;;;;;65.07;24.23;;;;;;;8.79;100.00;103683.66;4833022;29;20049;-73
2021/12/16 12:05:39;;;;;;;68.88;24.52;;;;;;;8.75;100.00;103687.59;4811847;29;21273;-75
2021/12/16 12:08:16;;;;;;;42.05;24.67;;;;;;;8.78;100.00;103695.38;4819478;29;20534;-74
2021/12/16 12:10:53;;;;;;;48.33;23.90;;;;;;;8.76;100.00;103691.97;4835497;29;20043;-75
2021/12/16 12:13:49;;;;;;;59.50;23.90;;;;;;;8.75;100.00;103686.75;4822103;28;23020;-74
2021/12/16 12:16:17;;;;;;;47.58;23.55;;;;;;;8.75;100.00;103682.22;4834658;29;20836;-74
2021/12/16 12:18:58;;;;;;;47.17;25.02;;;;;;;8.78;100.00;103687.31;4820372;28;20054;-73
2021/12/16 12:21:28;;;;;;;59.00;25.98;;;;;;;8.75;100.00;103687.59;4821192;29;25531;-74
2021/12/16 12:24:15;;;;;;;45.35;24.10;;;;;;;8.73;100.00;103678.78;4838542;28;20035;-74
2021/12/16 12:26:58;;;;;;;39.70;23.75;;;;;;;8.90;100.00;103673.81;4831748;28;20162;-74
2021/12/16 12:29:50;;;;;;;55.03;25.15;;;;;;;8.88;100.00;103668.56;4844215;29;20137;-75
2021/12/16 12:32:21;;;;;;;44.25;25.02;;;;;;;8.91;100.00;103670.97;4810771;29;20066;-75
2021/12/16 12:35:00;;;;;;;53.55;27.25;;;;;;;8.92;100.00;103669.16;4851369;29;20043;-74
2021/12/16 12:37:28;;;;;;;51.50;26.02;;;;;;;9.02;100.00;103672.72;4835756;29;20057;-74
2021/12/16 12:40:15;;;;;;;49.75;26.15;;;;;;;9.00;100.00;103670.19;4826752;28;20051;-74
2021/12/16 12:42:42;;;;;;;40.72;25.52;;;;;;;9.11;100.00;103671.94;4837629;29;20086;-73
2021/12/16 12:45:10;;;;;;;44.47;25.80;;;;;;;9.02;100.00;103672.72;4823035;29;20147;-74
2021/12/16 12:47:38;;;;;;;54.15;24.90;;;;;;;8.99;100.00;103667.66;4815382;29;20064;-72
2021/12/16 12:50:15;;;;;;;42.28;25.25;;;;;;;8.89;100.00;103666.75;4830481;28;20062;-73
2021/12/16 12:52:41;;;;;;;45.33;25.58;;;;;;;8.84;100.00;103672.50;4828782;29;20049;-72
2021/12/16 12:55:17;;;;;;;45.45;25.10;;;;;;;8.83;100.00;103671.66;4834568;28;20931;-72
2021/12/16 12:57:45;;;;;;;41.33;25.15;;;;;;;8.82;100.00;103661.88;4802168;29;20166;-72
2021/12/16 13:00:29;;;;;;;42.33;24.25;;;;;;;8.78;100.00;103664.97;4818930;29;20118;-73
2021/12/16 13:03:02;;;;;;;47.28;24.63;;;;;;;8.77;100.00;103666.78;4814610;29;20035;-72
2021/12/16 13:05:28;;;;;;;42.92;25.63;;;;;;;8.89;100.00;103655.97;4807037;29;20179;-72
2021/12/16 13:08:00;;;;;;;53.95;26.50;;;;;;;8.82;100.00;103658.34;4818272;29;20050;-73
2021/12/16 13:10:33;;;;;;;49.05;26.90;;;;;;;8.86;100.00;103661.63;4802445;29;20058;-73
2021/12/16 13:13:28;;;;;;;53.67;26.85;;;;;;;8.78;100.00;103652.38;4816595;29;20027;-73
2021/12/16 13:16:20;;;;;;;53.70;26.02;;;;;;;8.79;100.00;103667.53;4827495;28;20036;-74
2021/12/16 13:30:05;;;;;;;65.22;31.00;;;;;;;8.83;100.00;103655.50;4802475;29;20903;-73
2021/12/16 13:32:41;;;;;;;72.95;33.47;;;;;;;8.86;100.00;103653.56;4837050;29;20027;-73
2021/12/16 13:37:53;;;;;;;67.03;32.42;;;;;;;8.92;100.00;103658.41;4808078;29;20213;-74
2021/12/16 13:40:23;;;;;;;56.22;30.17;;;;;;;8.92;100.00;103650.34;4800171;29;21432;-72
2021/12/16 13:43:03;;;;;;;57.28;28.55;;;;;;;8.88;100.00;103667.69;4802278;28;20069;-73
2021/12/16 13:45:44;;;;;;;53.75;27.30;;;;;;;8.87;100.00;103668.69;4817417;29;20110;-74
2021/12/16 13:49:11;;;;;;;62.42;27.98;;;;;;;8.82;100.00;103678.00;4829049;28;20150;-71
2021/12/16 14:03:13;;;;;;;58.38;26.58;;;;;;;8.91;100.00;103691.63;4821796;29;20087;-72
2021/12/16 14:06:15;;;;;;;47.58;26.45;;;;;;;8.88;100.00;103692.78;4835783;29;20174;-73
2021/12/16 14:08:43;;;;;;;58.20;26.95;;;;;;;8.87;100.00;103695.56;4822386;28;21173;-73
2021/12/16 14:17:51;;;;;;;64.53;27.77;;;;;;;8.81;100.00;103697.81;4823575;28;21018;-73
2021/12/16 14:24:08;;;;;;;67.72;28.02;;;;;;;8.77;100.00;103701.72;4807959;29;20147;-71